createdAt,value
2017-09-22T00:00:04.507Z,0.00
2017-09-22T00:01:04.435Z,0.00
2017-09-22T00:02:04.346Z,0.00
2017-09-22T00:03:04.263Z,0.00
2017-09-22T00:04:04.189Z,0.00
2017-09-22T00:05:04.103Z,0.00
2017-09-22T00:06:04.021Z,0.00
2017-09-22T00:07:03.938Z,0.00
2017-09-22T00:08:03.854Z,0.00
2017-09-22T00:09:03.779Z,0.00
2017-09-22T00:10:03.700Z,0.00
2017-09-22T00:11:03.614Z,0.00
2017-09-22T00:12:03.537Z,0.00
2017-09-22T00:13:03.453Z,0.00
2017-09-22T00:14:03.407Z,0.00
2017-09-22T00:15:03.287Z,0.00
2017-09-22T00:16:03.208Z,0.00
2017-09-22T00:17:03.133Z,0.00
2017-09-22T00:18:03.050Z,0.00
2017-09-22T00:19:02.967Z,0.00
2017-09-22T00:20:02.883Z,0.00
2017-09-22T00:21:02.799Z,0.00
2017-09-22T00:22:02.727Z,0.00
2017-09-22T00:23:02.642Z,0.00
2017-09-22T00:24:02.561Z,0.00
2017-09-22T00:25:02.483Z,0.00
2017-09-22T00:26:02.401Z,0.00
2017-09-22T00:27:02.314Z,0.00
2017-09-22T00:28:02.237Z,0.00
2017-09-22T00:29:02.152Z,0.00
2017-09-22T00:30:02.072Z,0.00
2017-09-22T00:31:01.988Z,0.00
2017-09-22T00:32:01.905Z,0.00
2017-09-22T00:33:01.863Z,0.00
2017-09-22T00:34:01.748Z,0.00
2017-09-22T00:35:01.668Z,0.00
2017-09-22T00:36:01.584Z,0.00
2017-09-22T00:37:01.499Z,0.00
2017-09-22T00:38:01.419Z,0.00
2017-09-22T00:39:01.338Z,0.00
2017-09-22T00:40:01.257Z,0.00
2017-09-22T00:41:01.170Z,0.00
2017-09-22T00:42:01.093Z,0.00
2017-09-22T00:43:01.012Z,0.00
2017-09-22T00:44:00.929Z,0.00
2017-09-22T00:45:00.850Z,0.00
2017-09-22T00:46:00.775Z,0.00
2017-09-22T00:47:00.692Z,0.00
2017-09-22T00:48:00.600Z,0.00
2017-09-22T00:49:00.521Z,0.00
2017-09-22T00:50:00.447Z,0.00
2017-09-22T00:51:00.357Z,0.00
2017-09-22T00:52:00.277Z,0.00
2017-09-22T00:53:00.197Z,0.00
2017-09-22T00:54:00.145Z,0.00
2017-09-22T00:55:00.037Z,0.00
2017-09-22T00:55:59.951Z,0.00
2017-09-22T00:56:59.870Z,0.00
2017-09-22T00:57:59.786Z,0.00
2017-09-22T00:58:59.715Z,0.00
2017-09-22T00:59:59.620Z,0.00
2017-09-22T01:00:59.550Z,0.00
2017-09-22T01:01:59.463Z,0.00
2017-09-22T01:02:59.381Z,0.00
2017-09-22T01:03:59.297Z,0.00
2017-09-22T01:04:59.217Z,0.00
2017-09-22T01:05:59.138Z,0.00
2017-09-22T01:06:59.053Z,0.00
2017-09-22T01:07:58.978Z,0.00
2017-09-22T01:08:58.891Z,0.00
2017-09-22T01:09:58.807Z,0.00
2017-09-22T01:10:58.719Z,0.00
2017-09-22T01:11:58.642Z,0.00
2017-09-22T01:12:58.567Z,0.00
2017-09-22T01:13:58.480Z,0.00
2017-09-22T01:14:58.407Z,0.00
2017-09-22T01:15:58.312Z,0.00
2017-09-22T01:16:58.231Z,0.00
2017-09-22T01:17:58.152Z,0.00
2017-09-22T01:18:58.071Z,0.00
2017-09-22T01:19:57.987Z,0.00
2017-09-22T01:20:57.907Z,0.00
2017-09-22T01:21:57.830Z,0.00
2017-09-22T01:22:57.745Z,0.00
2017-09-22T01:23:57.657Z,0.00
2017-09-22T01:24:57.584Z,0.00
2017-09-22T01:25:57.501Z,0.00
2017-09-22T01:26:57.415Z,0.00
2017-09-22T01:27:57.335Z,0.00
2017-09-22T01:28:57.251Z,0.00
2017-09-22T01:29:57.173Z,0.00
2017-09-22T01:30:57.091Z,0.00
2017-09-22T01:31:57.002Z,0.00
2017-09-22T01:32:56.923Z,0.00
2017-09-22T01:33:56.842Z,0.00
2017-09-22T01:34:56.760Z,0.00
2017-09-22T01:35:56.676Z,0.00
2017-09-22T01:36:56.598Z,0.00
2017-09-22T01:37:56.515Z,0.00
2017-09-22T01:38:56.435Z,0.00
2017-09-22T01:39:56.353Z,0.00
2017-09-22T01:40:56.267Z,0.00
2017-09-22T01:41:56.192Z,0.00
2017-09-22T01:42:56.104Z,0.00
2017-09-22T01:43:56.029Z,0.00
2017-09-22T01:44:55.945Z,0.00
2017-09-22T01:45:55.859Z,0.00
2017-09-22T01:46:55.779Z,0.00
2017-09-22T01:47:55.700Z,0.00
2017-09-22T01:48:55.616Z,0.00
2017-09-22T01:49:55.534Z,0.00
2017-09-22T01:50:55.448Z,0.00
2017-09-22T01:51:55.364Z,0.00
2017-09-22T01:52:55.285Z,0.00
2017-09-22T01:53:55.205Z,0.00
2017-09-22T01:54:55.131Z,0.00
2017-09-22T01:55:55.042Z,0.00
2017-09-22T01:56:54.963Z,0.00
2017-09-22T01:57:54.876Z,0.00
2017-09-22T01:58:54.794Z,0.00
2017-09-22T01:59:54.717Z,0.00
2017-09-22T02:00:54.634Z,0.00
2017-09-22T02:01:54.550Z,0.00
2017-09-22T02:02:54.476Z,0.00
2017-09-22T02:03:54.377Z,0.00
2017-09-22T02:04:54.298Z,0.00
2017-09-22T02:05:54.222Z,0.00
2017-09-22T02:06:54.132Z,0.00
2017-09-22T02:07:54.056Z,0.00
2017-09-22T02:08:53.975Z,0.00
2017-09-22T02:09:53.912Z,0.00
2017-09-22T02:10:53.809Z,0.00
2017-09-22T02:11:53.724Z,0.00
2017-09-22T02:12:53.642Z,0.00
2017-09-22T02:13:53.563Z,0.00
2017-09-22T02:14:53.478Z,0.00
2017-09-22T02:15:53.415Z,0.00
2017-09-22T02:16:53.314Z,0.00
2017-09-22T02:17:53.238Z,0.00
2017-09-22T02:18:53.160Z,0.00
2017-09-22T02:19:53.072Z,0.00
2017-09-22T02:20:52.993Z,0.00
2017-09-22T02:21:52.902Z,0.00
2017-09-22T02:22:52.820Z,0.00
2017-09-22T02:23:52.738Z,0.00
2017-09-22T02:24:52.655Z,0.00
2017-09-22T02:25:52.574Z,0.00
2017-09-22T02:26:52.492Z,0.00
2017-09-22T02:27:52.409Z,0.00
2017-09-22T02:28:52.329Z,0.00
2017-09-22T02:29:52.244Z,0.00
2017-09-22T02:30:52.171Z,0.00
2017-09-22T02:31:52.085Z,0.00
2017-09-22T02:32:51.996Z,0.00
2017-09-22T02:33:51.912Z,0.00
2017-09-22T02:34:51.840Z,0.00
2017-09-22T02:35:51.752Z,0.00
2017-09-22T02:36:51.670Z,0.00
2017-09-22T02:37:51.584Z,0.00
2017-09-22T02:38:51.511Z,0.00
2017-09-22T02:39:51.435Z,0.00
2017-09-22T02:40:51.344Z,0.00
2017-09-22T02:41:51.256Z,0.00
2017-09-22T02:42:51.178Z,0.00
2017-09-22T02:43:51.094Z,0.00
2017-09-22T02:44:51.011Z,0.00
2017-09-22T02:45:50.931Z,0.00
2017-09-22T02:46:50.846Z,0.00
2017-09-22T02:47:50.763Z,0.00
2017-09-22T02:48:50.685Z,0.00
2017-09-22T02:49:50.629Z,0.00
2017-09-22T02:50:50.529Z,0.00
2017-09-22T02:51:50.435Z,0.00
2017-09-22T02:52:50.369Z,0.00
2017-09-22T02:53:50.270Z,0.00
2017-09-22T02:54:50.198Z,0.00
2017-09-22T02:55:50.109Z,0.00
2017-09-22T02:56:50.025Z,0.00
2017-09-22T02:57:49.938Z,0.00
2017-09-22T02:58:49.857Z,0.00
2017-09-22T02:59:49.775Z,0.00
2017-09-22T03:00:49.698Z,0.00
2017-09-22T03:01:49.611Z,0.00
2017-09-22T03:02:49.535Z,0.00
2017-09-22T03:03:49.448Z,0.00
2017-09-22T03:04:49.362Z,0.00
2017-09-22T03:05:49.283Z,0.00
2017-09-22T03:06:49.208Z,0.00
2017-09-22T03:07:49.117Z,0.00
2017-09-22T03:08:49.038Z,0.00
2017-09-22T03:09:48.962Z,0.00
2017-09-22T03:10:48.874Z,0.00
2017-09-22T03:11:48.788Z,0.00
2017-09-22T03:12:48.709Z,0.00
2017-09-22T03:13:48.623Z,0.00
2017-09-22T03:14:48.544Z,0.00
2017-09-22T03:15:48.459Z,0.00
2017-09-22T03:16:48.376Z,0.00
2017-09-22T03:17:48.291Z,0.00
2017-09-22T03:18:48.209Z,0.00
2017-09-22T03:19:48.136Z,0.00
2017-09-22T03:20:48.050Z,0.00
2017-09-22T03:21:47.962Z,0.00
2017-09-22T03:22:47.880Z,0.00
2017-09-22T03:23:47.807Z,0.00
2017-09-22T03:24:47.715Z,0.00
2017-09-22T03:25:47.635Z,0.00
2017-09-22T03:26:47.556Z,0.00
2017-09-22T03:27:47.472Z,0.00
2017-09-22T03:28:47.387Z,0.00
2017-09-22T03:29:47.306Z,0.00
2017-09-22T03:30:47.220Z,0.00
2017-09-22T03:31:47.141Z,0.00
2017-09-22T03:32:47.057Z,0.00
2017-09-22T03:33:46.977Z,0.00
2017-09-22T03:34:46.894Z,0.00
2017-09-22T03:35:46.808Z,0.00
2017-09-22T03:36:46.726Z,0.00
2017-09-22T03:37:46.644Z,0.00
2017-09-22T03:38:46.560Z,0.00
2017-09-22T03:39:46.478Z,0.00
2017-09-22T03:40:46.403Z,0.00
2017-09-22T03:41:46.312Z,0.00
2017-09-22T03:42:46.231Z,0.00
2017-09-22T03:43:46.147Z,0.00
2017-09-22T03:44:46.072Z,0.00
2017-09-22T03:45:45.983Z,0.00
2017-09-22T03:46:45.903Z,0.00
2017-09-22T03:47:45.836Z,0.00
2017-09-22T03:48:45.739Z,0.00
2017-09-22T03:49:45.654Z,0.00
2017-09-22T03:50:45.568Z,0.00
2017-09-22T03:51:45.495Z,0.00
2017-09-22T03:52:45.415Z,0.00
2017-09-22T03:53:45.326Z,0.00
2017-09-22T03:54:45.239Z,0.00
2017-09-22T03:55:45.162Z,0.00
2017-09-22T03:56:45.077Z,0.00
2017-09-22T03:57:44.996Z,0.00
2017-09-22T03:58:44.912Z,0.00
2017-09-22T03:59:44.830Z,0.00
2017-09-22T04:00:44.749Z,0.00
2017-09-22T04:01:44.664Z,0.00
2017-09-22T04:02:44.585Z,0.00
2017-09-22T04:03:44.498Z,0.00
2017-09-22T04:04:44.416Z,0.00
2017-09-22T04:05:44.353Z,0.00
2017-09-22T04:06:44.254Z,0.00
2017-09-22T04:07:44.168Z,0.00
2017-09-22T04:08:44.085Z,0.00
2017-09-22T04:09:44.010Z,0.00
2017-09-22T04:10:43.930Z,0.00
2017-09-22T04:11:43.838Z,0.00
2017-09-22T04:12:43.760Z,0.00
2017-09-22T04:13:43.678Z,0.00
2017-09-22T04:14:43.596Z,0.00
2017-09-22T04:15:43.503Z,0.00
2017-09-22T04:16:43.422Z,0.00
2017-09-22T04:17:43.346Z,0.00
2017-09-22T04:18:43.262Z,0.00
2017-09-22T04:19:43.178Z,0.00
2017-09-22T04:20:43.108Z,0.00
2017-09-22T04:21:43.019Z,0.00
2017-09-22T04:22:42.932Z,0.00
2017-09-22T04:23:42.842Z,0.00
2017-09-22T04:24:42.766Z,0.00
2017-09-22T04:25:42.685Z,0.00
2017-09-22T04:26:42.596Z,0.00
2017-09-22T04:27:42.517Z,0.00
2017-09-22T04:28:42.433Z,0.00
2017-09-22T04:29:42.351Z,0.00
2017-09-22T04:30:42.271Z,0.00
2017-09-22T04:31:42.179Z,0.00
2017-09-22T04:32:42.101Z,0.00
2017-09-22T04:33:42.019Z,0.00
2017-09-22T04:34:41.941Z,0.00
2017-09-22T04:35:41.856Z,0.00
2017-09-22T04:36:41.791Z,0.00
2017-09-22T04:37:41.688Z,0.00
2017-09-22T04:38:41.603Z,0.00
2017-09-22T04:39:41.521Z,0.00
2017-09-22T04:40:41.442Z,0.00
2017-09-22T04:41:41.359Z,0.00
2017-09-22T04:42:41.274Z,0.00
2017-09-22T04:43:41.192Z,0.00
2017-09-22T04:44:41.113Z,4.00
2017-09-22T04:45:41.024Z,4.00
2017-09-22T04:46:40.941Z,0.00
2017-09-22T04:47:40.866Z,4.00
2017-09-22T04:48:40.774Z,4.00
2017-09-22T04:49:40.701Z,4.00
2017-09-22T04:50:40.614Z,4.00
2017-09-22T04:51:40.534Z,8.00
2017-09-22T04:52:40.454Z,12.00
2017-09-22T04:53:40.365Z,8.00
2017-09-22T04:54:40.280Z,12.00
2017-09-22T04:55:40.197Z,16.00
2017-09-22T04:56:40.114Z,20.00
2017-09-22T04:57:40.029Z,20.00
2017-09-22T04:58:39.947Z,28.00
2017-09-22T04:59:39.871Z,28.00
2017-09-22T05:00:39.783Z,36.00
2017-09-22T05:01:39.701Z,40.00
2017-09-22T05:02:39.617Z,52.00
2017-09-22T05:03:39.534Z,56.00
2017-09-22T05:04:39.452Z,64.00
2017-09-22T05:05:39.363Z,68.00
2017-09-22T05:06:39.287Z,80.00
2017-09-22T05:07:39.198Z,92.00
2017-09-22T05:08:39.118Z,104.00
2017-09-22T05:09:39.035Z,112.00
2017-09-22T05:10:38.966Z,124.00
2017-09-22T05:11:38.874Z,140.00
2017-09-22T05:12:38.789Z,152.00
2017-09-22T05:13:38.704Z,168.00
2017-09-22T05:14:38.631Z,180.00
2017-09-22T05:15:38.541Z,196.00
2017-09-22T05:16:38.458Z,212.00
2017-09-22T05:17:38.370Z,228.00
2017-09-22T05:18:38.286Z,248.00
2017-09-22T05:19:38.210Z,276.00
2017-09-22T05:20:38.123Z,300.00
2017-09-22T05:21:38.034Z,332.00
2017-09-22T05:22:37.956Z,360.00
2017-09-22T05:23:37.871Z,396.00
2017-09-22T05:24:37.795Z,436.00
2017-09-22T05:25:37.706Z,476.00
2017-09-22T05:26:37.624Z,520.00
2017-09-22T05:27:37.544Z,560.00
2017-09-22T05:28:37.458Z,608.00
2017-09-22T05:29:37.374Z,656.00
2017-09-22T05:30:37.293Z,704.00
2017-09-22T05:31:37.207Z,748.00
2017-09-22T05:32:37.131Z,788.00
2017-09-22T05:33:37.051Z,832.00
2017-09-22T05:34:36.968Z,868.00
2017-09-22T05:35:36.879Z,900.00
2017-09-22T05:36:36.791Z,928.00
2017-09-22T05:37:36.712Z,964.00
2017-09-22T05:38:36.628Z,1004.00
2017-09-22T05:39:36.550Z,1064.00
2017-09-22T05:40:36.465Z,1200.00
2017-09-22T05:41:36.389Z,1416.00
2017-09-22T05:42:36.296Z,1960.00
2017-09-22T05:43:36.214Z,2816.00
2017-09-22T05:44:36.131Z,2164.00
2017-09-22T05:45:36.049Z,1492.00
2017-09-22T05:46:35.966Z,1792.00
2017-09-22T05:47:35.882Z,1700.00
2017-09-22T05:48:35.800Z,1284.00
2017-09-22T05:49:35.713Z,1316.00
2017-09-22T05:50:35.631Z,1352.00
2017-09-22T05:51:35.551Z,1520.00
2017-09-22T05:52:35.471Z,1840.00
2017-09-22T05:53:35.384Z,1516.00
2017-09-22T05:54:35.302Z,1496.00
2017-09-22T05:55:35.229Z,1416.00
2017-09-22T05:56:35.144Z,1420.00
2017-09-22T05:57:35.052Z,1440.00
2017-09-22T05:58:34.969Z,1456.00
2017-09-22T05:59:34.891Z,1476.00
2017-09-22T06:00:34.803Z,1500.00
2017-09-22T06:01:34.725Z,1528.00
2017-09-22T06:02:34.640Z,1560.00
2017-09-22T06:03:34.558Z,1600.00
2017-09-22T06:04:34.483Z,1644.00
2017-09-22T06:05:34.390Z,1688.00
2017-09-22T06:06:34.311Z,1732.00
2017-09-22T06:07:34.223Z,1784.00
2017-09-22T06:08:34.139Z,1844.00
2017-09-22T06:09:34.058Z,1920.00
2017-09-22T06:10:33.971Z,2028.00
2017-09-22T06:11:33.894Z,2168.00
2017-09-22T06:12:33.814Z,2368.00
2017-09-22T06:13:33.725Z,2856.00
2017-09-22T06:14:33.651Z,4116.00
2017-09-22T06:15:33.560Z,6512.00
2017-09-22T06:16:33.477Z,4508.00
2017-09-22T06:17:33.397Z,3132.00
2017-09-22T06:18:33.310Z,3104.00
2017-09-22T06:19:33.228Z,3204.00
2017-09-22T06:20:33.146Z,3296.00
2017-09-22T06:21:33.061Z,3360.00
2017-09-22T06:22:32.981Z,3448.00
2017-09-22T06:23:32.894Z,3464.00
2017-09-22T06:24:32.820Z,3528.00
2017-09-22T06:25:32.737Z,3620.00
2017-09-22T06:26:32.650Z,3744.00
2017-09-22T06:27:32.570Z,3764.00
2017-09-22T06:28:32.482Z,3824.00
2017-09-22T06:29:32.401Z,3868.00
2017-09-22T06:30:32.320Z,3808.00
2017-09-22T06:31:32.246Z,4036.00
2017-09-22T06:32:32.157Z,4356.00
2017-09-22T06:33:32.074Z,4480.00
2017-09-22T06:34:31.991Z,4536.00
2017-09-22T06:35:31.917Z,4584.00
2017-09-22T06:36:31.829Z,4648.00
2017-09-22T06:37:31.741Z,4712.00
2017-09-22T06:38:31.675Z,4780.00
2017-09-22T06:39:31.578Z,4964.00
2017-09-22T06:40:31.496Z,5196.00
2017-09-22T06:41:31.417Z,9620.00
2017-09-22T06:42:31.336Z,7908.00
2017-09-22T06:43:31.250Z,7268.00
2017-09-22T06:44:31.163Z,5792.00
2017-09-22T06:45:31.100Z,5460.00
2017-09-22T06:46:30.999Z,5760.00
2017-09-22T06:47:30.916Z,9216.00
2017-09-22T06:48:30.835Z,10844.00
2017-09-22T06:49:30.749Z,5768.00
2017-09-22T06:50:30.671Z,5548.00
2017-09-22T06:51:30.586Z,5588.00
2017-09-22T06:52:30.501Z,5640.00
2017-09-22T06:53:30.423Z,5828.00
2017-09-22T06:54:30.343Z,6024.00
2017-09-22T06:55:30.260Z,5844.00
2017-09-22T06:56:30.177Z,5928.00
2017-09-22T06:57:30.094Z,6016.00
2017-09-22T06:58:30.012Z,6112.00
2017-09-22T06:59:29.923Z,6216.00
2017-09-22T07:00:29.876Z,6344.00
2017-09-22T07:01:29.768Z,6424.00
2017-09-22T07:02:29.687Z,6504.00
2017-09-22T07:03:29.599Z,6576.00
2017-09-22T07:04:29.523Z,6632.00
2017-09-22T07:05:29.449Z,6804.00
2017-09-22T07:06:29.353Z,7008.00
2017-09-22T07:07:29.274Z,7120.00
2017-09-22T07:08:29.187Z,7220.00
2017-09-22T07:09:29.112Z,7628.00
2017-09-22T07:10:29.034Z,7688.00
2017-09-22T07:11:28.940Z,7544.00
2017-09-22T07:12:28.858Z,7580.00
2017-09-22T07:13:28.782Z,7576.00
2017-09-22T07:14:28.700Z,7636.00
2017-09-22T07:15:28.615Z,7764.00
2017-09-22T07:16:28.530Z,8056.00
2017-09-22T07:17:28.451Z,7944.00
2017-09-22T07:18:28.375Z,8076.00
2017-09-22T07:19:28.286Z,8128.00
2017-09-22T07:20:28.227Z,10064.00
2017-09-22T07:21:28.119Z,8212.00
2017-09-22T07:22:28.039Z,8412.00
2017-09-22T07:23:27.962Z,8552.00
2017-09-22T07:24:27.875Z,8448.00
2017-09-22T07:25:27.791Z,8744.00
2017-09-22T07:26:27.710Z,8568.00
2017-09-22T07:27:27.632Z,8616.00
2017-09-22T07:28:27.553Z,8800.00
2017-09-22T07:29:27.462Z,8936.00
2017-09-22T07:30:27.381Z,9116.00
2017-09-22T07:31:27.299Z,9236.00
2017-09-22T07:32:27.216Z,9204.00
2017-09-22T07:33:27.136Z,8768.00
2017-09-22T07:34:27.086Z,7652.00
2017-09-22T07:35:26.973Z,7660.00
2017-09-22T07:36:26.890Z,9020.00
2017-09-22T07:37:26.809Z,9616.00
2017-09-22T07:38:26.728Z,9368.00
2017-09-22T07:39:26.644Z,10332.00
2017-09-22T07:40:26.562Z,10916.00
2017-09-22T07:41:26.482Z,11272.00
2017-09-22T07:42:26.409Z,11424.00
2017-09-22T07:43:26.319Z,12476.00
2017-09-22T07:44:26.236Z,13484.00
2017-09-22T07:45:26.155Z,13292.00
2017-09-22T07:46:26.076Z,13292.00
2017-09-22T07:47:26.015Z,12184.00
2017-09-22T07:48:25.916Z,13036.00
2017-09-22T07:49:25.829Z,19712.00
2017-09-22T07:50:25.745Z,14900.00
2017-09-22T07:51:25.666Z,15792.00
2017-09-22T07:52:25.590Z,32992.00
2017-09-22T07:53:25.510Z,52672.00
2017-09-22T07:54:25.442Z,16740.00
2017-09-22T07:55:25.344Z,69248.00
2017-09-22T07:56:25.269Z,54016.00
2017-09-22T07:57:25.180Z,20096.00
2017-09-22T07:58:25.100Z,24896.00
2017-09-22T07:59:25.019Z,57792.00
2017-09-22T08:00:24.950Z,64736.00
2017-09-22T08:01:24.874Z,93504.00
2017-09-22T08:02:24.777Z,95040.00
2017-09-22T08:03:24.695Z,92896.00
2017-09-22T08:04:24.617Z,83072.00
2017-09-22T08:05:24.532Z,68800.00
2017-09-22T08:06:24.452Z,53248.00
2017-09-22T08:07:24.376Z,38368.00
2017-09-22T08:08:24.334Z,24928.00
2017-09-22T08:09:24.217Z,17088.00
2017-09-22T08:10:24.135Z,15864.00
2017-09-22T08:11:24.076Z,16072.00
2017-09-22T08:12:23.972Z,16116.00
2017-09-22T08:13:23.894Z,16068.00
2017-09-22T08:14:23.835Z,16116.00
2017-09-22T08:15:23.735Z,16220.00
2017-09-22T08:16:23.653Z,16368.00
2017-09-22T08:17:23.575Z,16472.00
2017-09-22T08:18:23.509Z,16800.00
2017-09-22T08:19:23.422Z,16928.00
2017-09-22T08:20:23.337Z,17024.00
2017-09-22T08:21:23.265Z,17280.00
2017-09-22T08:22:23.184Z,17376.00
2017-09-22T08:23:23.103Z,17440.00
2017-09-22T08:24:23.036Z,16200.00
2017-09-22T08:25:22.952Z,13728.00
2017-09-22T08:26:22.876Z,17792.00
2017-09-22T08:27:22.791Z,17760.00
2017-09-22T08:28:22.723Z,17984.00
2017-09-22T08:29:22.644Z,18208.00
2017-09-22T08:30:22.561Z,18112.00
2017-09-22T08:31:22.497Z,18336.00
2017-09-22T08:32:22.413Z,18368.00
2017-09-22T08:33:22.332Z,18400.00
2017-09-22T08:34:22.252Z,18592.00
2017-09-22T08:35:22.177Z,16440.00
2017-09-22T08:36:22.097Z,15864.00
2017-09-22T08:37:22.020Z,18912.00
2017-09-22T08:38:21.943Z,19104.00
2017-09-22T08:39:21.866Z,18944.00
2017-09-22T08:40:21.794Z,19744.00
2017-09-22T08:41:21.731Z,20000.00
2017-09-22T08:42:21.632Z,20384.00
2017-09-22T08:43:21.562Z,20864.00
2017-09-22T08:44:21.490Z,21184.00
2017-09-22T08:45:21.416Z,22656.00
2017-09-22T08:46:21.341Z,26624.00
2017-09-22T08:47:21.261Z,33568.00
2017-09-22T08:48:21.187Z,41184.00
2017-09-22T08:49:21.110Z,50240.00
2017-09-22T08:50:21.049Z,60896.00
2017-09-22T08:51:20.963Z,65344.00
2017-09-22T08:52:20.893Z,68800.00
2017-09-22T08:53:20.808Z,60320.00
2017-09-22T08:54:20.737Z,42912.00
2017-09-22T08:55:20.661Z,20224.00
2017-09-22T08:56:20.588Z,29376.00
2017-09-22T08:57:20.513Z,48672.00
2017-09-22T08:58:20.441Z,40704.00
2017-09-22T08:59:20.362Z,31968.00
2017-09-22T09:00:20.289Z,25536.00
2017-09-22T09:01:20.219Z,22592.00
2017-09-22T09:02:20.145Z,21952.00
2017-09-22T09:03:20.067Z,21696.00
2017-09-22T09:04:19.989Z,21632.00
2017-09-22T09:05:19.923Z,21440.00
2017-09-22T09:06:19.844Z,21600.00
2017-09-22T09:07:19.776Z,21600.00
2017-09-22T09:08:19.691Z,21728.00
2017-09-22T09:09:19.617Z,22240.00
2017-09-22T09:10:19.552Z,21952.00
2017-09-22T09:11:19.470Z,22400.00
2017-09-22T09:12:19.395Z,22752.00
2017-09-22T09:13:19.322Z,23168.00
2017-09-22T09:14:19.245Z,22688.00
2017-09-22T09:15:19.172Z,22592.00
2017-09-22T09:16:19.096Z,24000.00
2017-09-22T09:17:19.031Z,26080.00
2017-09-22T09:18:18.952Z,30080.00
2017-09-22T09:19:18.880Z,30464.00
2017-09-22T09:20:18.809Z,44128.00
2017-09-22T09:21:18.736Z,56640.00
2017-09-22T09:22:18.670Z,61792.00
2017-09-22T09:23:18.599Z,71360.00
2017-09-22T09:24:18.523Z,49280.00
2017-09-22T09:25:18.451Z,83296.00
2017-09-22T09:26:18.375Z,73120.00
2017-09-22T09:27:18.305Z,88384.00
2017-09-22T09:28:18.247Z,29888.00
2017-09-22T09:29:18.164Z,79072.00
2017-09-22T09:30:18.100Z,66080.00
2017-09-22T09:31:18.022Z,94048.00
2017-09-22T09:32:17.956Z,26304.00
2017-09-22T09:33:17.886Z,82336.00
2017-09-22T09:34:17.810Z,87392.00
2017-09-22T09:35:17.735Z,103264.00
2017-09-22T09:36:17.671Z,73120.00
2017-09-22T09:37:17.591Z,100352.00
2017-09-22T09:38:17.532Z,75520.00
2017-09-22T09:39:17.449Z,100192.00
2017-09-22T09:40:17.379Z,32544.00
2017-09-22T09:41:17.310Z,97504.00
2017-09-22T09:42:17.251Z,97984.00
2017-09-22T09:43:17.169Z,45056.00
2017-09-22T09:44:17.094Z,27808.00
2017-09-22T09:45:17.026Z,29728.00
2017-09-22T09:46:16.956Z,78336.00
2017-09-22T09:47:16.880Z,43264.00
2017-09-22T09:48:16.811Z,78624.00
2017-09-22T09:49:16.738Z,73568.00
2017-09-22T09:50:16.666Z,64096.00
2017-09-22T09:51:16.597Z,56032.00
2017-09-22T09:52:16.527Z,36704.00
2017-09-22T09:53:16.454Z,71616.00
2017-09-22T09:54:16.386Z,52896.00
2017-09-22T09:55:16.315Z,37024.00
2017-09-22T09:56:16.236Z,64288.00
2017-09-22T09:57:16.166Z,46592.00
2017-09-22T09:58:16.094Z,80480.00
2017-09-22T09:59:16.023Z,88416.00
2017-09-22T10:00:15.951Z,73696.00
2017-09-22T10:01:15.879Z,91808.00
2017-09-22T10:02:15.808Z,99456.00
2017-09-22T10:03:15.739Z,61632.00
2017-09-22T10:04:15.667Z,42336.00
2017-09-22T10:05:15.608Z,81216.00
2017-09-22T10:06:15.525Z,82176.00
2017-09-22T10:07:15.468Z,96640.00
2017-09-22T10:08:15.386Z,94560.00
2017-09-22T10:09:15.316Z,92064.00
2017-09-22T10:10:15.244Z,86912.00
2017-09-22T10:11:15.174Z,80224.00
2017-09-22T10:12:15.102Z,82144.00
2017-09-22T10:13:15.043Z,84480.00
2017-09-22T10:14:14.964Z,82752.00
2017-09-22T10:15:14.905Z,63968.00
2017-09-22T10:16:14.822Z,79520.00
2017-09-22T10:17:14.751Z,74752.00
2017-09-22T10:18:14.675Z,73216.00
2017-09-22T10:19:14.628Z,75328.00
2017-09-22T10:20:14.538Z,67776.00
2017-09-22T10:21:14.494Z,80096.00
2017-09-22T10:22:14.397Z,81216.00
2017-09-22T10:23:14.321Z,80416.00
2017-09-22T10:24:14.287Z,84448.00
2017-09-22T10:25:14.179Z,86944.00
2017-09-22T10:26:14.108Z,86016.00
2017-09-22T10:27:14.038Z,87296.00
2017-09-22T10:28:13.980Z,84896.00
2017-09-22T10:29:13.898Z,85504.00
2017-09-22T10:30:13.826Z,86432.00
2017-09-22T10:31:13.761Z,85824.00
2017-09-22T10:32:13.689Z,83264.00
2017-09-22T10:33:13.624Z,86496.00
2017-09-22T10:34:13.555Z,90944.00
2017-09-22T10:35:13.487Z,84864.00
2017-09-22T10:36:13.415Z,83584.00
2017-09-22T10:37:13.347Z,84320.00
2017-09-22T10:38:13.283Z,83296.00
2017-09-22T10:39:13.219Z,82656.00
2017-09-22T10:40:13.148Z,82336.00
2017-09-22T10:41:13.078Z,77696.00
2017-09-22T10:42:13.026Z,80672.00
2017-09-22T10:43:12.960Z,81856.00
2017-09-22T10:44:12.873Z,83424.00
2017-09-22T10:45:12.809Z,79072.00
2017-09-22T10:46:12.742Z,76960.00
2017-09-22T10:47:12.681Z,81216.00
2017-09-22T10:48:12.614Z,80480.00
2017-09-22T10:49:12.538Z,80032.00
2017-09-22T10:50:12.479Z,78112.00
2017-09-22T10:51:12.410Z,77312.00
2017-09-22T10:52:12.342Z,75072.00
2017-09-22T10:53:12.342Z,53280.00
2017-09-22T10:54:12.225Z,23712.00
2017-09-22T10:55:12.138Z,18080.00
2017-09-22T10:56:12.069Z,17536.00
2017-09-22T10:57:12.004Z,17312.00
2017-09-22T10:58:11.935Z,17984.00
2017-09-22T10:59:11.863Z,18624.00
2017-09-22T11:00:11.821Z,39392.00
2017-09-22T11:01:11.739Z,63104.00
2017-09-22T11:02:11.660Z,66784.00
2017-09-22T11:03:11.596Z,73376.00
2017-09-22T11:04:11.526Z,76672.00
2017-09-22T11:05:11.456Z,79360.00
2017-09-22T11:06:11.390Z,77248.00
2017-09-22T11:07:11.330Z,75232.00
2017-09-22T11:08:11.258Z,74976.00
2017-09-22T11:09:11.186Z,78400.00
2017-09-22T11:10:11.114Z,60032.00
2017-09-22T11:11:11.051Z,33440.00
2017-09-22T11:12:10.977Z,16960.00
2017-09-22T11:13:10.922Z,16832.00
2017-09-22T11:14:10.842Z,16736.00
2017-09-22T11:15:10.785Z,17312.00
2017-09-22T11:16:10.701Z,17824.00
2017-09-22T11:17:10.635Z,29312.00
2017-09-22T11:18:10.570Z,59840.00
2017-09-22T11:19:10.501Z,76128.00
2017-09-22T11:20:10.433Z,75072.00
2017-09-22T11:21:10.363Z,74624.00
2017-09-22T11:22:10.329Z,75904.00
2017-09-22T11:23:10.231Z,75808.00
2017-09-22T11:24:10.160Z,67392.00
2017-09-22T11:25:10.096Z,60512.00
2017-09-22T11:26:10.024Z,71008.00
2017-09-22T11:27:09.959Z,73248.00
2017-09-22T11:28:09.894Z,72384.00
2017-09-22T11:29:09.825Z,88160.00
2017-09-22T11:30:09.754Z,93152.00
2017-09-22T11:31:09.693Z,93728.00
2017-09-22T11:32:09.623Z,94912.00
2017-09-22T11:33:09.571Z,93024.00
2017-09-22T11:34:09.495Z,92736.00
2017-09-22T11:35:09.420Z,91392.00
2017-09-22T11:36:09.355Z,92928.00
2017-09-22T11:37:09.296Z,92160.00
2017-09-22T11:38:09.221Z,90944.00
2017-09-22T11:39:09.148Z,90688.00
2017-09-22T11:40:09.085Z,88544.00
2017-09-22T11:41:09.012Z,43232.00
2017-09-22T11:42:08.945Z,13140.00
2017-09-22T11:43:08.867Z,12868.00
2017-09-22T11:44:08.803Z,12756.00
2017-09-22T11:45:08.728Z,12584.00
2017-09-22T11:46:08.663Z,12552.00
2017-09-22T11:47:08.584Z,12424.00
2017-09-22T11:48:08.511Z,12144.00
2017-09-22T11:49:08.444Z,11456.00
2017-09-22T11:50:08.364Z,11840.00
2017-09-22T11:51:08.302Z,11844.00
2017-09-22T11:52:08.219Z,11840.00
2017-09-22T11:53:08.152Z,11556.00
2017-09-22T11:54:08.072Z,11880.00
2017-09-22T11:55:08.000Z,11260.00
2017-09-22T11:56:07.925Z,11216.00
2017-09-22T11:57:07.857Z,10972.00
2017-09-22T11:58:07.787Z,11144.00
2017-09-22T11:59:07.700Z,10952.00
2017-09-22T12:00:07.632Z,10992.00
2017-09-22T12:01:07.555Z,10752.00
2017-09-22T12:02:07.486Z,10868.00
2017-09-22T12:03:07.409Z,10772.00
2017-09-22T12:04:07.332Z,10896.00
2017-09-22T12:05:07.261Z,10940.00
2017-09-22T12:06:07.218Z,10892.00
2017-09-22T12:07:07.111Z,10784.00
2017-09-22T12:08:07.035Z,10424.00
2017-09-22T12:09:06.962Z,10352.00
2017-09-22T12:10:06.889Z,10324.00
2017-09-22T12:11:06.834Z,10100.00
2017-09-22T12:12:06.747Z,10024.00
2017-09-22T12:13:06.669Z,9912.00
2017-09-22T12:14:06.594Z,9788.00
2017-09-22T12:15:06.525Z,9476.00
2017-09-22T12:16:06.459Z,9340.00
2017-09-22T12:17:06.380Z,9276.00
2017-09-22T12:18:06.308Z,9156.00
2017-09-22T12:19:06.227Z,8740.00
2017-09-22T12:20:06.161Z,8916.00
2017-09-22T12:21:06.085Z,8580.00
2017-09-22T12:22:06.012Z,8396.00
2017-09-22T12:23:05.933Z,8220.00
2017-09-22T12:24:05.867Z,8844.00